sensor_id;sensor_type;location;lat;lon;timestamp;P1;durP1;ratioP1;P2;durP2;ratioP2
30380;SDS011;17169;50.966;11.038;2023-10-09T00:01:30;6.90;;;2.70;;
30380;SDS011;17169;50.966;11.038;2023-10-09T00:04:32;5.25;;;2.78;;
30380;SDS011;17169;50.966;11.038;2023-10-09T00:07:37;4.93;;;2.60;;
30380;SDS011;17169;50.966;11.038;2023-10-09T00:10:40;5.53;;;2.85;;
30380;SDS011;17169;50.966;11.038;2023-10-09T00:13:49;6.07;;;2.85;;
30380;SDS011;17169;50.966;11.038;2023-10-09T00:16:54;7.88;;;3.38;;
30380;SDS011;17169;50.966;11.038;2023-10-09T00:20:06;5.78;;;3.00;;
30380;SDS011;17169;50.966;11.038;2023-10-09T00:23:18;8.20;;;3.03;;
30380;SDS011;17169;50.966;11.038;2023-10-09T00:26:20;7.20;;;3.40;;
30380;SDS011;17169;50.966;11.038;2023-10-09T00:29:23;7.65;;;3.53;;
30380;SDS011;17169;50.966;11.038;2023-10-09T00:32:36;6.25;;;3.33;;
30380;SDS011;17169;50.966;11.038;2023-10-09T00:35:52;8.30;;;3.67;;
30380;SDS011;17169;50.966;11.038;2023-10-09T00:38:55;6.22;;;3.53;;
30380;SDS011;17169;50.966;11.038;2023-10-09T00:42:01;13.73;;;3.25;;
30380;SDS011;17169;50.966;11.038;2023-10-09T00:45:07;6.55;;;3.47;;
30380;SDS011;17169;50.966;11.038;2023-10-09T00:48:25;5.97;;;3.38;;
30380;SDS011;17169;50.966;11.038;2023-10-09T00:51:35;6.90;;;3.75;;
30380;SDS011;17169;50.966;11.038;2023-10-09T00:54:56;10.88;;;4.13;;
30380;SDS011;17169;50.966;11.038;2023-10-09T00:58:14;9.27;;;3.80;;
30380;SDS011;17169;50.966;11.038;2023-10-09T01:01:24;8.35;;;4.20;;
30380;SDS011;17169;50.966;11.038;2023-10-09T01:04:30;10.63;;;3.80;;
30380;SDS011;17169;50.966;11.038;2023-10-09T01:07:37;7.53;;;3.75;;
30380;SDS011;17169;50.966;11.038;2023-10-09T01:10:44;6.65;;;3.80;;
30380;SDS011;17169;50.966;11.038;2023-10-09T01:13:51;7.80;;;3.58;;
30380;SDS011;17169;50.966;11.038;2023-10-09T01:16:56;6.40;;;3.88;;
30380;SDS011;17169;50.966;11.038;2023-10-09T01:20:02;9.18;;;4.57;;
30380;SDS011;17169;50.966;11.038;2023-10-09T01:23:07;9.57;;;4.20;;
30380;SDS011;17169;50.966;11.038;2023-10-09T01:26:11;7.47;;;4.00;;
30380;SDS011;17169;50.966;11.038;2023-10-09T01:29:14;7.25;;;4.03;;
30380;SDS011;17169;50.966;11.038;2023-10-09T01:32:18;10.07;;;4.07;;
30380;SDS011;17169;50.966;11.038;2023-10-09T01:35:21;9.32;;;4.45;;
30380;SDS011;17169;50.966;11.038;2023-10-09T01:38:25;10.35;;;4.28;;
30380;SDS011;17169;50.966;11.038;2023-10-09T01:41:40;7.93;;;4.30;;
30380;SDS011;17169;50.966;11.038;2023-10-09T01:44:47;11.15;;;3.97;;
30380;SDS011;17169;50.966;11.038;2023-10-09T01:47:49;6.30;;;4.07;;
30380;SDS011;17169;50.966;11.038;2023-10-09T01:50:54;8.55;;;4.60;;
30380;SDS011;17169;50.966;11.038;2023-10-09T01:53:57;10.90;;;5.38;;
30380;SDS011;17169;50.966;11.038;2023-10-09T01:57:00;9.98;;;4.45;;
30380;SDS011;17169;50.966;11.038;2023-10-09T02:00:06;8.05;;;4.03;;
30380;SDS011;17169;50.966;11.038;2023-10-09T02:03:09;10.50;;;4.78;;
30380;SDS011;17169;50.966;11.038;2023-10-09T02:06:24;7.88;;;4.32;;
30380;SDS011;17169;50.966;11.038;2023-10-09T02:09:29;13.45;;;4.82;;
30380;SDS011;17169;50.966;11.038;2023-10-09T02:12:32;9.48;;;4.18;;
30380;SDS011;17169;50.966;11.038;2023-10-09T02:15:36;7.28;;;4.20;;
30380;SDS011;17169;50.966;11.038;2023-10-09T02:18:46;8.20;;;4.82;;
30380;SDS011;17169;50.966;11.038;2023-10-09T02:21:54;9.82;;;4.00;;
30380;SDS011;17169;50.966;11.038;2023-10-09T02:24:59;9.50;;;3.88;;
30380;SDS011;17169;50.966;11.038;2023-10-09T02:28:05;9.18;;;4.65;;
30380;SDS011;17169;50.966;11.038;2023-10-09T02:31:11;9.40;;;4.20;;
30380;SDS011;17169;50.966;11.038;2023-10-09T02:34:14;8.80;;;4.10;;
30380;SDS011;17169;50.966;11.038;2023-10-09T02:37:17;11.27;;;5.20;;
30380;SDS011;17169;50.966;11.038;2023-10-09T02:40:27;7.28;;;4.45;;
30380;SDS011;17169;50.966;11.038;2023-10-09T02:43:40;8.25;;;4.25;;
30380;SDS011;17169;50.966;11.038;2023-10-09T02:46:45;11.65;;;4.07;;
30380;SDS011;17169;50.966;11.038;2023-10-09T02:49:47;9.38;;;4.38;;
30380;SDS011;17169;50.966;11.038;2023-10-09T02:52:50;8.65;;;4.05;;
30380;SDS011;17169;50.966;11.038;2023-10-09T02:55:55;6.95;;;4.28;;
30380;SDS011;17169;50.966;11.038;2023-10-09T02:59:13;9.80;;;3.83;;
30380;SDS011;17169;50.966;11.038;2023-10-09T03:02:15;12.43;;;4.80;;
30380;SDS011;17169;50.966;11.038;2023-10-09T03:05:18;10.90;;;4.28;;
30380;SDS011;17169;50.966;11.038;2023-10-09T03:08:21;8.23;;;4.22;;
30380;SDS011;17169;50.966;11.038;2023-10-09T03:11:24;9.40;;;4.85;;
30380;SDS011;17169;50.966;11.038;2023-10-09T03:14:28;8.77;;;4.67;;
30380;SDS011;17169;50.966;11.038;2023-10-09T03:17:31;8.30;;;4.80;;
30380;SDS011;17169;50.966;11.038;2023-10-09T03:20:34;10.73;;;4.57;;
30380;SDS011;17169;50.966;11.038;2023-10-09T03:23:37;6.70;;;4.20;;
30380;SDS011;17169;50.966;11.038;2023-10-09T03:26:41;10.45;;;4.50;;
30380;SDS011;17169;50.966;11.038;2023-10-09T03:29:45;8.82;;;4.43;;
30380;SDS011;17169;50.966;11.038;2023-10-09T03:32:50;13.80;;;5.10;;
30380;SDS011;17169;50.966;11.038;2023-10-09T03:35:53;11.07;;;5.50;;
30380;SDS011;17169;50.966;11.038;2023-10-09T03:38:56;7.35;;;4.60;;
30380;SDS011;17169;50.966;11.038;2023-10-09T03:42:01;10.15;;;4.57;;
30380;SDS011;17169;50.966;11.038;2023-10-09T03:45:06;14.65;;;6.32;;
30380;SDS011;17169;50.966;11.038;2023-10-09T03:48:18;10.25;;;5.53;;
30380;SDS011;17169;50.966;11.038;2023-10-09T03:51:26;10.15;;;5.63;;
30380;SDS011;17169;50.966;11.038;2023-10-09T03:54:29;12.10;;;4.38;;
30380;SDS011;17169;50.966;11.038;2023-10-09T03:57:34;12.93;;;5.15;;
30380;SDS011;17169;50.966;11.038;2023-10-09T04:00:37;9.30;;;4.50;;
30380;SDS011;17169;50.966;11.038;2023-10-09T04:03:45;10.05;;;4.93;;
30380;SDS011;17169;50.966;11.038;2023-10-09T04:06:48;12.45;;;5.40;;
30380;SDS011;17169;50.966;11.038;2023-10-09T04:09:52;10.82;;;5.35;;
30380;SDS011;17169;50.966;11.038;2023-10-09T04:13:18;12.38;;;5.20;;
30380;SDS011;17169;50.966;11.038;2023-10-09T04:16:24;8.98;;;4.88;;
30380;SDS011;17169;50.966;11.038;2023-10-09T04:19:36;15.63;;;4.80;;
30380;SDS011;17169;50.966;11.038;2023-10-09T04:22:48;10.40;;;4.82;;
30380;SDS011;17169;50.966;11.038;2023-10-09T04:26:00;16.90;;;5.60;;
30380;SDS011;17169;50.966;11.038;2023-10-09T04:29:12;10.88;;;5.07;;
30380;SDS011;17169;50.966;11.038;2023-10-09T04:32:19;10.15;;;4.78;;
30380;SDS011;17169;50.966;11.038;2023-10-09T04:35:29;12.98;;;5.43;;
30380;SDS011;17169;50.966;11.038;2023-10-09T04:38:33;9.85;;;5.22;;
30380;SDS011;17169;50.966;11.038;2023-10-09T04:41:37;9.25;;;4.88;;
30380;SDS011;17169;50.966;11.038;2023-10-09T04:44:54;9.88;;;4.85;;
30380;SDS011;17169;50.966;11.038;2023-10-09T04:48:16;10.40;;;5.32;;
30380;SDS011;17169;50.966;11.038;2023-10-09T04:51:33;12.82;;;5.35;;
30380;SDS011;17169;50.966;11.038;2023-10-09T04:54:37;13.85;;;5.25;;
30380;SDS011;17169;50.966;11.038;2023-10-09T04:57:44;9.20;;;4.47;;
30380;SDS011;17169;50.966;11.038;2023-10-09T05:00:48;12.40;;;4.90;;
30380;SDS011;17169;50.966;11.038;2023-10-09T05:04:12;9.40;;;5.00;;
30380;SDS011;17169;50.966;11.038;2023-10-09T05:07:35;9.68;;;4.88;;
30380;SDS011;17169;50.966;11.038;2023-10-09T05:10:55;10.82;;;5.00;;
30380;SDS011;17169;50.966;11.038;2023-10-09T05:14:15;13.57;;;5.53;;
30380;SDS011;17169;50.966;11.038;2023-10-09T05:17:21;12.57;;;5.77;;
30380;SDS011;17169;50.966;11.038;2023-10-09T05:20:26;15.70;;;5.82;;
30380;SDS011;17169;50.966;11.038;2023-10-09T05:23:46;11.63;;;5.95;;
30380;SDS011;17169;50.966;11.038;2023-10-09T05:27:10;10.13;;;5.72;;
30380;SDS011;17169;50.966;11.038;2023-10-09T05:30:43;17.33;;;5.40;;
30380;SDS011;17169;50.966;11.038;2023-10-09T05:33:46;12.13;;;6.07;;
30380;SDS011;17169;50.966;11.038;2023-10-09T05:36:48;14.40;;;5.32;;
30380;SDS011;17169;50.966;11.038;2023-10-09T05:39:49;12.60;;;5.68;;
30380;SDS011;17169;50.966;11.038;2023-10-09T05:43:20;8.80;;;5.28;;
30380;SDS011;17169;50.966;11.038;2023-10-09T05:46:36;8.75;;;4.68;;
30380;SDS011;17169;50.966;11.038;2023-10-09T05:49:51;11.55;;;5.60;;
30380;SDS011;17169;50.966;11.038;2023-10-09T05:52:56;13.00;;;4.95;;
30380;SDS011;17169;50.966;11.038;2023-10-09T05:56:08;17.13;;;5.30;;
30380;SDS011;17169;50.966;11.038;2023-10-09T05:59:28;14.48;;;5.80;;
30380;SDS011;17169;50.966;11.038;2023-10-09T06:02:48;13.20;;;5.45;;
30380;SDS011;17169;50.966;11.038;2023-10-09T06:06:09;14.00;;;5.32;;
30380;SDS011;17169;50.966;11.038;2023-10-09T06:09:18;14.20;;;5.47;;
30380;SDS011;17169;50.966;11.038;2023-10-09T06:12:49;13.23;;;4.88;;
30380;SDS011;17169;50.966;11.038;2023-10-09T06:15:56;11.05;;;5.22;;
30380;SDS011;17169;50.966;11.038;2023-10-09T06:19:20;9.90;;;4.70;;
30380;SDS011;17169;50.966;11.038;2023-10-09T06:22:29;10.40;;;5.75;;
30380;SDS011;17169;50.966;11.038;2023-10-09T06:25:49;17.85;;;5.18;;
30380;SDS011;17169;50.966;11.038;2023-10-09T06:28:52;12.45;;;5.25;;
30380;SDS011;17169;50.966;11.038;2023-10-09T06:32:08;11.70;;;5.72;;
30380;SDS011;17169;50.966;11.038;2023-10-09T06:38:38;10.00;;;4.70;;
30380;SDS011;17169;50.966;11.038;2023-10-09T06:41:52;10.75;;;4.90;;
30380;SDS011;17169;50.966;11.038;2023-10-09T06:45:10;11.57;;;5.07;;
30380;SDS011;17169;50.966;11.038;2023-10-09T06:48:17;10.18;;;4.53;;
30380;SDS011;17169;50.966;11.038;2023-10-09T06:51:36;10.68;;;4.85;;
30380;SDS011;17169;50.966;11.038;2023-10-09T06:54:45;9.63;;;4.70;;
30380;SDS011;17169;50.966;11.038;2023-10-09T06:57:51;9.90;;;4.65;;
30380;SDS011;17169;50.966;11.038;2023-10-09T07:00:55;10.10;;;4.70;;
30380;SDS011;17169;50.966;11.038;2023-10-09T07:04:11;11.45;;;5.10;;
30380;SDS011;17169;50.966;11.038;2023-10-09T07:07:20;9.80;;;5.15;;
30380;SDS011;17169;50.966;11.038;2023-10-09T07:10:26;14.95;;;5.55;;
30380;SDS011;17169;50.966;11.038;2023-10-09T07:16:37;10.75;;;5.05;;
30380;SDS011;17169;50.966;11.038;2023-10-09T07:19:38;13.13;;;5.38;;
30380;SDS011;17169;50.966;11.038;2023-10-09T07:22:58;10.95;;;4.90;;
30380;SDS011;17169;50.966;11.038;2023-10-09T07:26:15;9.52;;;4.88;;
30380;SDS011;17169;50.966;11.038;2023-10-09T07:29:23;9.80;;;4.38;;
30380;SDS011;17169;50.966;11.038;2023-10-09T07:32:28;10.88;;;4.68;;
30380;SDS011;17169;50.966;11.038;2023-10-09T07:35:33;13.82;;;5.03;;
30380;SDS011;17169;50.966;11.038;2023-10-09T07:38:47;10.20;;;4.88;;
30380;SDS011;17169;50.966;11.038;2023-10-09T07:41:57;14.23;;;4.82;;
30380;SDS011;17169;50.966;11.038;2023-10-09T07:45:15;11.95;;;5.40;;
30380;SDS011;17169;50.966;11.038;2023-10-09T07:48:32;8.73;;;4.35;;
30380;SDS011;17169;50.966;11.038;2023-10-09T07:51:49;9.73;;;4.85;;
30380;SDS011;17169;50.966;11.038;2023-10-09T07:54:53;14.93;;;5.30;;
30380;SDS011;17169;50.966;11.038;2023-10-09T07:58:03;10.95;;;5.15;;
30380;SDS011;17169;50.966;11.038;2023-10-09T08:01:11;11.10;;;5.15;;
30380;SDS011;17169;50.966;11.038;2023-10-09T08:04:23;13.75;;;5.55;;
30380;SDS011;17169;50.966;11.038;2023-10-09T08:07:38;13.52;;;5.25;;
30380;SDS011;17169;50.966;11.038;2023-10-09T08:10:55;11.43;;;4.22;;
30380;SDS011;17169;50.966;11.038;2023-10-09T08:14:15;10.68;;;5.78;;
30380;SDS011;17169;50.966;11.038;2023-10-09T08:17:44;9.57;;;4.55;;
30380;SDS011;17169;50.966;11.038;2023-10-09T08:20:51;9.68;;;4.70;;
30380;SDS011;17169;50.966;11.038;2023-10-09T08:24:14;11.45;;;4.78;;
30380;SDS011;17169;50.966;11.038;2023-10-09T08:27:31;12.70;;;5.18;;
30380;SDS011;17169;50.966;11.038;2023-10-09T08:30:57;10.17;;;5.07;;
30380;SDS011;17169;50.966;11.038;2023-10-09T08:34:19;14.32;;;4.80;;
30380;SDS011;17169;50.966;11.038;2023-10-09T08:37:27;12.30;;;5.75;;
30380;SDS011;17169;50.966;11.038;2023-10-09T08:40:31;10.23;;;4.80;;
30380;SDS011;17169;50.966;11.038;2023-10-09T08:43:37;12.63;;;5.00;;
30380;SDS011;17169;50.966;11.038;2023-10-09T08:46:43;14.50;;;5.05;;
30380;SDS011;17169;50.966;11.038;2023-10-09T08:49:46;10.65;;;4.78;;
30380;SDS011;17169;50.966;11.038;2023-10-09T08:52:48;10.45;;;5.40;;
30380;SDS011;17169;50.966;11.038;2023-10-09T08:55:52;10.15;;;5.30;;
30380;SDS011;17169;50.966;11.038;2023-10-09T08:58:55;12.57;;;5.72;;
30380;SDS011;17169;50.966;11.038;2023-10-09T09:01:59;14.10;;;5.65;;
30380;SDS011;17169;50.966;11.038;2023-10-09T09:05:07;12.40;;;6.03;;
30380;SDS011;17169;50.966;11.038;2023-10-09T09:08:22;12.20;;;5.65;;
30380;SDS011;17169;50.966;11.038;2023-10-09T09:11:26;9.55;;;4.88;;
30380;SDS011;17169;50.966;11.038;2023-10-09T09:14:36;14.15;;;5.65;;
30380;SDS011;17169;50.966;11.038;2023-10-09T09:17:40;14.82;;;5.90;;
30380;SDS011;17169;50.966;11.038;2023-10-09T09:20:43;14.55;;;5.53;;
30380;SDS011;17169;50.966;11.038;2023-10-09T09:23:52;13.25;;;5.43;;
30380;SDS011;17169;50.966;11.038;2023-10-09T09:27:00;15.80;;;5.72;;
30380;SDS011;17169;50.966;11.038;2023-10-09T09:30:21;13.20;;;5.30;;
30380;SDS011;17169;50.966;11.038;2023-10-09T09:33:27;16.77;;;6.65;;
30380;SDS011;17169;50.966;11.038;2023-10-09T09:36:51;12.55;;;5.80;;
30380;SDS011;17169;50.966;11.038;2023-10-09T09:39:55;12.55;;;6.30;;
30380;SDS011;17169;50.966;11.038;2023-10-09T09:43:01;13.57;;;5.50;;
30380;SDS011;17169;50.966;11.038;2023-10-09T09:46:07;9.75;;;5.30;;
30380;SDS011;17169;50.966;11.038;2023-10-09T09:49:10;12.82;;;5.43;;
30380;SDS011;17169;50.966;11.038;2023-10-09T09:52:17;12.25;;;5.70;;
30380;SDS011;17169;50.966;11.038;2023-10-09T09:55:19;13.57;;;5.47;;
30380;SDS011;17169;50.966;11.038;2023-10-09T09:58:31;13.65;;;6.43;;
30380;SDS011;17169;50.966;11.038;2023-10-09T10:01:42;13.20;;;5.78;;
30380;SDS011;17169;50.966;11.038;2023-10-09T10:04:58;12.93;;;5.65;;
30380;SDS011;17169;50.966;11.038;2023-10-09T10:08:06;11.23;;;5.57;;
30380;SDS011;17169;50.966;11.038;2023-10-09T10:14:52;10.23;;;6.10;;
30380;SDS011;17169;50.966;11.038;2023-10-09T10:18:07;14.82;;;6.32;;
30380;SDS011;17169;50.966;11.038;2023-10-09T10:21:14;13.43;;;6.63;;
30380;SDS011;17169;50.966;11.038;2023-10-09T10:27:55;13.55;;;6.53;;
30380;SDS011;17169;50.966;11.038;2023-10-09T10:35:01;11.27;;;5.80;;
30380;SDS011;17169;50.966;11.038;2023-10-09T10:41:37;12.90;;;5.80;;
30380;SDS011;17169;50.966;11.038;2023-10-09T10:44:51;13.35;;;5.13;;
30380;SDS011;17169;50.966;11.038;2023-10-09T10:47:54;10.95;;;5.63;;
30380;SDS011;17169;50.966;11.038;2023-10-09T10:50:59;14.63;;;5.88;;
30380;SDS011;17169;50.966;11.038;2023-10-09T10:54:01;12.07;;;5.55;;
30380;SDS011;17169;50.966;11.038;2023-10-09T10:57:20;14.55;;;5.88;;
30380;SDS011;17169;50.966;11.038;2023-10-09T11:00:52;10.05;;;5.68;;
30380;SDS011;17169;50.966;11.038;2023-10-09T11:04:12;10.05;;;4.53;;
30380;SDS011;17169;50.966;11.038;2023-10-09T11:07:25;12.18;;;5.25;;
30380;SDS011;17169;50.966;11.038;2023-10-09T11:10:27;14.07;;;5.30;;
30380;SDS011;17169;50.966;11.038;2023-10-09T11:13:33;13.35;;;4.88;;
30380;SDS011;17169;50.966;11.038;2023-10-09T11:16:52;11.90;;;5.40;;
30380;SDS011;17169;50.966;11.038;2023-10-09T11:19:59;12.23;;;5.95;;
30380;SDS011;17169;50.966;11.038;2023-10-09T11:23:21;14.30;;;4.93;;
30380;SDS011;17169;50.966;11.038;2023-10-09T11:26:36;8.55;;;4.78;;
30380;SDS011;17169;50.966;11.038;2023-10-09T11:29:47;9.23;;;4.75;;
30380;SDS011;17169;50.966;11.038;2023-10-09T11:33:06;10.33;;;5.17;;
30380;SDS011;17169;50.966;11.038;2023-10-09T11:36:14;13.27;;;4.95;;
30380;SDS011;17169;50.966;11.038;2023-10-09T11:39:23;10.05;;;4.78;;
30380;SDS011;17169;50.966;11.038;2023-10-09T11:42:32;15.20;;;4.93;;
30380;SDS011;17169;50.966;11.038;2023-10-09T11:45:50;10.38;;;5.40;;
30380;SDS011;17169;50.966;11.038;2023-10-09T11:49:02;10.07;;;5.10;;
30380;SDS011;17169;50.966;11.038;2023-10-09T11:52:17;10.82;;;5.53;;
30380;SDS011;17169;50.966;11.038;2023-10-09T11:55:38;13.13;;;5.07;;
30380;SDS011;17169;50.966;11.038;2023-10-09T11:58:40;15.95;;;5.10;;
30380;SDS011;17169;50.966;11.038;2023-10-09T12:01:46;15.77;;;5.70;;
30380;SDS011;17169;50.966;11.038;2023-10-09T12:04:53;11.52;;;4.82;;
30380;SDS011;17169;50.966;11.038;2023-10-09T12:07:57;14.07;;;5.00;;
30380;SDS011;17169;50.966;11.038;2023-10-09T12:11:02;12.33;;;5.30;;
30380;SDS011;17169;50.966;11.038;2023-10-09T12:14:08;13.57;;;4.90;;
30380;SDS011;17169;50.966;11.038;2023-10-09T12:17:12;13.48;;;5.30;;
30380;SDS011;17169;50.966;11.038;2023-10-09T12:20:14;13.70;;;5.30;;
30380;SDS011;17169;50.966;11.038;2023-10-09T12:23:30;11.55;;;5.43;;
30380;SDS011;17169;50.966;11.038;2023-10-09T12:26:36;12.88;;;5.50;;
30380;SDS011;17169;50.966;11.038;2023-10-09T12:29:40;12.82;;;5.28;;
30380;SDS011;17169;50.966;11.038;2023-10-09T12:35:48;11.68;;;5.32;;
30380;SDS011;17169;50.966;11.038;2023-10-09T12:38:51;9.73;;;5.30;;
30380;SDS011;17169;50.966;11.038;2023-10-09T12:41:59;9.57;;;5.00;;
30380;SDS011;17169;50.966;11.038;2023-10-09T12:45:07;10.82;;;4.97;;
30380;SDS011;17169;50.966;11.038;2023-10-09T12:48:11;12.38;;;4.82;;
30380;SDS011;17169;50.966;11.038;2023-10-09T12:51:15;15.43;;;5.40;;
30380;SDS011;17169;50.966;11.038;2023-10-09T12:54:18;13.32;;;4.82;;
30380;SDS011;17169;50.966;11.038;2023-10-09T12:57:24;11.48;;;4.65;;
30380;SDS011;17169;50.966;11.038;2023-10-09T13:00:27;8.65;;;5.05;;
30380;SDS011;17169;50.966;11.038;2023-10-09T13:03:34;11.05;;;4.63;;
30380;SDS011;17169;50.966;11.038;2023-10-09T13:06:39;10.18;;;4.65;;
30380;SDS011;17169;50.966;11.038;2023-10-09T13:09:44;10.05;;;5.20;;
30380;SDS011;17169;50.966;11.038;2023-10-09T13:13:06;14.63;;;5.32;;
30380;SDS011;17169;50.966;11.038;2023-10-09T13:16:12;11.60;;;4.43;;
30380;SDS011;17169;50.966;11.038;2023-10-09T13:19:24;9.43;;;4.57;;
30380;SDS011;17169;50.966;11.038;2023-10-09T13:22:27;14.00;;;5.80;;
30380;SDS011;17169;50.966;11.038;2023-10-09T13:25:31;10.25;;;4.60;;
30380;SDS011;17169;50.966;11.038;2023-10-09T13:28:40;13.32;;;4.97;;
30380;SDS011;17169;50.966;11.038;2023-10-09T13:31:42;10.90;;;4.68;;
30380;SDS011;17169;50.966;11.038;2023-10-09T13:34:49;10.55;;;4.90;;
30380;SDS011;17169;50.966;11.038;2023-10-09T13:37:54;9.88;;;4.65;;
30380;SDS011;17169;50.966;11.038;2023-10-09T13:40:57;8.32;;;4.70;;
30380;SDS011;17169;50.966;11.038;2023-10-09T13:47:04;9.73;;;5.13;;
30380;SDS011;17169;50.966;11.038;2023-10-09T13:50:08;12.20;;;4.88;;
30380;SDS011;17169;50.966;11.038;2023-10-09T13:53:11;8.80;;;5.00;;
30380;SDS011;17169;50.966;11.038;2023-10-09T13:56:16;13.23;;;6.00;;
30380;SDS011;17169;50.966;11.038;2023-10-09T13:59:20;14.38;;;5.78;;
30380;SDS011;17169;50.966;11.038;2023-10-09T14:02:23;15.45;;;5.10;;
30380;SDS011;17169;50.966;11.038;2023-10-09T14:08:34;14.87;;;5.30;;
30380;SDS011;17169;50.966;11.038;2023-10-09T14:11:42;9.98;;;4.90;;
30380;SDS011;17169;50.966;11.038;2023-10-09T14:14:45;10.85;;;4.93;;
30380;SDS011;17169;50.966;11.038;2023-10-09T14:17:48;12.18;;;5.85;;
30380;SDS011;17169;50.966;11.038;2023-10-09T14:21:00;11.05;;;5.50;;
30380;SDS011;17169;50.966;11.038;2023-10-09T14:24:05;13.25;;;6.28;;
30380;SDS011;17169;50.966;11.038;2023-10-09T14:27:16;13.55;;;6.95;;
30380;SDS011;17169;50.966;11.038;2023-10-09T14:30:18;14.65;;;6.85;;
30380;SDS011;17169;50.966;11.038;2023-10-09T14:33:30;12.05;;;6.32;;
30380;SDS011;17169;50.966;11.038;2023-10-09T14:36:38;15.13;;;7.38;;
30380;SDS011;17169;50.966;11.038;2023-10-09T14:39:44;17.83;;;7.18;;
30380;SDS011;17169;50.966;11.038;2023-10-09T14:42:48;14.37;;;6.90;;
30380;SDS011;17169;50.966;11.038;2023-10-09T14:45:52;17.88;;;7.68;;
30380;SDS011;17169;50.966;11.038;2023-10-09T14:48:56;17.35;;;6.07;;
30380;SDS011;17169;50.966;11.038;2023-10-09T14:52:01;12.25;;;6.03;;
30380;SDS011;17169;50.966;11.038;2023-10-09T14:55:04;10.38;;;5.43;;
30380;SDS011;17169;50.966;11.038;2023-10-09T14:58:07;12.88;;;5.97;;
30380;SDS011;17169;50.966;11.038;2023-10-09T15:01:11;20.97;;;7.93;;
30380;SDS011;17169;50.966;11.038;2023-10-09T15:04:19;18.55;;;9.27;;
30380;SDS011;17169;50.966;11.038;2023-10-09T15:07:24;15.85;;;6.50;;
30380;SDS011;17169;50.966;11.038;2023-10-09T15:10:29;11.88;;;6.45;;
30380;SDS011;17169;50.966;11.038;2023-10-09T15:13:32;11.68;;;6.65;;
30380;SDS011;17169;50.966;11.038;2023-10-09T15:16:35;15.48;;;7.07;;
30380;SDS011;17169;50.966;11.038;2023-10-09T15:19:39;14.38;;;7.22;;
30380;SDS011;17169;50.966;11.038;2023-10-09T15:22:44;16.77;;;6.88;;
30380;SDS011;17169;50.966;11.038;2023-10-09T15:25:46;12.32;;;5.75;;
30380;SDS011;17169;50.966;11.038;2023-10-09T15:28:52;17.80;;;6.88;;
30380;SDS011;17169;50.966;11.038;2023-10-09T15:31:54;16.15;;;6.40;;
30380;SDS011;17169;50.966;11.038;2023-10-09T15:34:57;12.45;;;6.05;;
30380;SDS011;17169;50.966;11.038;2023-10-09T15:38:02;13.43;;;6.00;;
30380;SDS011;17169;50.966;11.038;2023-10-09T15:41:05;12.38;;;5.72;;
30380;SDS011;17169;50.966;11.038;2023-10-09T15:44:07;15.98;;;6.93;;
30380;SDS011;17169;50.966;11.038;2023-10-09T15:47:10;16.38;;;6.50;;
30380;SDS011;17169;50.966;11.038;2023-10-09T15:50:13;12.23;;;6.13;;
30380;SDS011;17169;50.966;11.038;2023-10-09T15:53:17;13.95;;;6.90;;
30380;SDS011;17169;50.966;11.038;2023-10-09T15:56:19;11.27;;;5.95;;
30380;SDS011;17169;50.966;11.038;2023-10-09T15:59:22;11.00;;;5.97;;
30380;SDS011;17169;50.966;11.038;2023-10-09T16:02:25;12.93;;;5.97;;
30380;SDS011;17169;50.966;11.038;2023-10-09T16:05:28;9.95;;;4.90;;
30380;SDS011;17169;50.966;11.038;2023-10-09T16:08:32;14.30;;;5.90;;
30380;SDS011;17169;50.966;11.038;2023-10-09T16:11:37;10.85;;;6.03;;
30380;SDS011;17169;50.966;11.038;2023-10-09T16:14:40;11.32;;;5.15;;
30380;SDS011;17169;50.966;11.038;2023-10-09T16:17:44;11.45;;;5.47;;
30380;SDS011;17169;50.966;11.038;2023-10-09T16:20:49;11.57;;;5.38;;
30380;SDS011;17169;50.966;11.038;2023-10-09T16:23:54;12.35;;;5.18;;
30380;SDS011;17169;50.966;11.038;2023-10-09T16:26:56;10.50;;;5.57;;
30380;SDS011;17169;50.966;11.038;2023-10-09T16:29:59;13.05;;;5.40;;
30380;SDS011;17169;50.966;11.038;2023-10-09T16:33:06;14.27;;;5.15;;
30380;SDS011;17169;50.966;11.038;2023-10-09T16:36:09;11.10;;;5.40;;
30380;SDS011;17169;50.966;11.038;2023-10-09T16:39:13;14.07;;;5.43;;
30380;SDS011;17169;50.966;11.038;2023-10-09T16:42:23;14.73;;;5.38;;
30380;SDS011;17169;50.966;11.038;2023-10-09T16:45:25;10.48;;;5.13;;
30380;SDS011;17169;50.966;11.038;2023-10-09T16:48:27;13.30;;;5.57;;
30380;SDS011;17169;50.966;11.038;2023-10-09T16:51:30;17.45;;;5.22;;
30380;SDS011;17169;50.966;11.038;2023-10-09T16:54:33;11.02;;;5.05;;
30380;SDS011;17169;50.966;11.038;2023-10-09T16:57:37;11.13;;;5.80;;
30380;SDS011;17169;50.966;11.038;2023-10-09T17:00:41;13.37;;;5.17;;
30380;SDS011;17169;50.966;11.038;2023-10-09T17:03:47;11.35;;;5.82;;
30380;SDS011;17169;50.966;11.038;2023-10-09T17:06:55;10.52;;;5.15;;
30380;SDS011;17169;50.966;11.038;2023-10-09T17:10:00;10.02;;;5.28;;
30380;SDS011;17169;50.966;11.038;2023-10-09T17:13:09;11.73;;;5.50;;
30380;SDS011;17169;50.966;11.038;2023-10-09T17:16:12;15.50;;;6.10;;
30380;SDS011;17169;50.966;11.038;2023-10-09T17:19:17;11.27;;;4.90;;
30380;SDS011;17169;50.966;11.038;2023-10-09T17:22:20;12.77;;;6.13;;
30380;SDS011;17169;50.966;11.038;2023-10-09T17:25:26;17.38;;;6.03;;
30380;SDS011;17169;50.966;11.038;2023-10-09T17:28:31;12.38;;;6.07;;
30380;SDS011;17169;50.966;11.038;2023-10-09T17:31:33;14.02;;;6.70;;
30380;SDS011;17169;50.966;11.038;2023-10-09T17:34:39;15.38;;;6.32;;
30380;SDS011;17169;50.966;11.038;2023-10-09T17:37:44;13.97;;;6.07;;
30380;SDS011;17169;50.966;11.038;2023-10-09T17:40:48;13.20;;;5.43;;
30380;SDS011;17169;50.966;11.038;2023-10-09T17:43:51;11.70;;;5.72;;
30380;SDS011;17169;50.966;11.038;2023-10-09T17:46:55;16.05;;;6.65;;
30380;SDS011;17169;50.966;11.038;2023-10-09T17:49:57;13.63;;;5.85;;
30380;SDS011;17169;50.966;11.038;2023-10-09T17:52:59;14.02;;;6.32;;
30380;SDS011;17169;50.966;11.038;2023-10-09T17:56:07;11.68;;;5.60;;
30380;SDS011;17169;50.966;11.038;2023-10-09T17:59:09;11.10;;;6.05;;
30380;SDS011;17169;50.966;11.038;2023-10-09T18:02:12;14.30;;;6.20;;
30380;SDS011;17169;50.966;11.038;2023-10-09T18:05:14;14.73;;;6.40;;
30380;SDS011;17169;50.966;11.038;2023-10-09T18:08:20;12.18;;;6.30;;
30380;SDS011;17169;50.966;11.038;2023-10-09T18:11:27;11.80;;;6.35;;
30380;SDS011;17169;50.966;11.038;2023-10-09T18:14:30;16.38;;;6.90;;
30380;SDS011;17169;50.966;11.038;2023-10-09T18:17:32;13.70;;;6.82;;
30380;SDS011;17169;50.966;11.038;2023-10-09T18:20:39;10.95;;;6.80;;
30380;SDS011;17169;50.966;11.038;2023-10-09T18:23:43;14.70;;;7.00;;
30380;SDS011;17169;50.966;11.038;2023-10-09T18:26:47;11.52;;;6.70;;
30380;SDS011;17169;50.966;11.038;2023-10-09T18:29:50;17.45;;;7.25;;
30380;SDS011;17169;50.966;11.038;2023-10-09T18:32:53;11.35;;;6.13;;
30380;SDS011;17169;50.966;11.038;2023-10-09T18:35:57;15.65;;;6.65;;
30380;SDS011;17169;50.966;11.038;2023-10-09T18:42:05;11.18;;;6.50;;
30380;SDS011;17169;50.966;11.038;2023-10-09T18:45:08;13.55;;;6.15;;
30380;SDS011;17169;50.966;11.038;2023-10-09T18:48:15;14.10;;;6.45;;
30380;SDS011;17169;50.966;11.038;2023-10-09T18:51:22;16.92;;;6.28;;
30380;SDS011;17169;50.966;11.038;2023-10-09T18:54:24;12.68;;;6.20;;
30380;SDS011;17169;50.966;11.038;2023-10-09T18:57:28;11.13;;;6.57;;